Date,TemperatureHighF,TemperatureAvgF,TemperatureLowF,DewpointHighF,DewpointAvgF,DewpointLowF,HumidityHigh,HumidityAvg,HumidityLow,PressureMaxIn,PressureMinIn,WindSpeedMaxMPH,WindSpeedAvgMPH,GustSpeedMaxMPH,PrecipitationSumIn
2013-2-1,52.2,39.4,28.8,47.1,38.2,28.3,98,96,82,29.14,29.09,4,0,4,0.17
2013-2-2,51.6,33.5,25.2,48.5,32.7,24.7,98,97,86,29.12,29.00,4,0,4,0.17
2013-2-3,38.8,32.6,25.0,38.2,32.1,24.5,98,98,98,29.09,29.00,4,0,4,0.00
2013-2-4,53.2,41.0,34.9,45.3,39.0,34.4,98,93,71,29.00,28.70,7,0,7,0.00
2013-2-5,45.7,40.5,38.5,44.6,39.9,38.0,98,97,92,28.76,28.67,10,1,10,0.25
2013-2-6,49.5,41.1,35.8,44.0,38.9,35.1,98,92,66,28.85,28.64,10,1,10,0.09
2013-2-7,45.0,35.4,25.2,41.6,33.1,24.2,98,92,62,28.94,28.64,15,0,15,0.12
2013-2-8,44.2,32.0,21.6,39.5,29.0,20.4,98,90,57,29.03,28.94,9,1,9,0.00
2013-2-9,45.5,35.8,29.3,37.7,32.5,27.5,98,89,68,29.09,28.97,10,1,10,0.00
2013-2-10,53.6,35.8,27.9,42.5,31.5,27.4,98,87,49,29.09,29.03,10,1,10,0.00
2013-2-11,46.6,38.8,32.4,39.8,35.6,31.4,98,89,62,29.12,29.03,7,1,7,0.00
2013-2-12,46.8,42.8,39.2,45.4,42.1,38.7,98,97,90,29.17,29.09,8,1,8,0.21
2013-2-13,93.4,43.5,36.7,51.2,40.2,35.4,98,89,24,29.26,29.11,11,2,11,0.08
2013-2-14,46.4,39.6,34.7,43.3,38.3,34.2,98,95,80,29.32,29.23,5,0,5,0.12
2013-2-15,60.8,40.3,28.0,51.2,37.9,27.5,98,92,66,29.26,28.97,4,1,4,0.12
2013-2-16,47.1,37.5,28.2,44.7,36.2,27.7,98,95,81,29.00,28.94,12,2,12,0.38
2013-2-17,45.3,37.7,30.6,39.0,33.9,29.6,98,87,58,29.03,28.88,7,1,7,0.12
2013-2-18,45.7,35.6,28.6,37.1,31.8,27.6,98,87,58,28.88,28.52,6,1,6,0.12
2013-2-19,56.1,36.4,25.7,39.6,30.3,24.2,98,81,38,28.76,28.47,9,1,9,0.12
2013-2-20,25.9,25.5,25.2,24.2,24.0,23.5,94,94,94,28.76,28.76,3,0,3,0.00
2013-2-22,36.7,35.3,34.3,32.8,32.1,31.2,90,88,83,28.76,28.64,12,4,12,1.08
2013-2-23,42.8,35.5,32.7,39.4,33.9,31.7,98,94,78,29.17,28.73,12,2,12,0.49
2013-2-24,48.4,38.1,33.1,40.6,34.5,31.1,98,88,55,29.17,28.82,6,1,6,0.45
2013-2-25,41.7,36.6,33.8,39.1,35.1,33.1,98,95,81,29.09,28.76,14,2,14,0.95
2013-2-26,50.2,37.7,31.3,38.6,33.7,28.9,98,87,51,29.12,29.00,9,1,9,0.45
2013-2-27,55.4,42.8,35.4,44.3,37.4,32.7,98,84,46,29.06,29.00,8,1,8,0.45
2013-2-28,45.9,42.4,39.4,45.3,41.9,38.9,98,98,98,29.17,28.97,5,1,5,1.07